Time;durP1;ratioP1;P1;durP2;ratioP2;P2;SDS_P1;SDS_P2;PMS_P1;PMS_P2;Temp;Humidity;BMP_temperature;BMP_pressure;BME280_temperature;BME280_humidity;BME280_pressure;Samples;Min_cycle;Max_cycle;Signal;HPM_P1;HPM_P2
2022/07/26 00:00:19;;;;;;;22.33;4.20;;;18.10;99.90;;;;;;5108104;27;20035;-74
2022/07/26 00:02:45;;;;;;;22.23;4.35;;;18.10;99.90;;;;;;5106664;28;20054;-74
2022/07/26 00:05:11;;;;;;;20.67;3.83;;;18.10;99.90;;;;;;5103328;27;20047;-75
2022/07/26 00:07:37;;;;;;;19.52;3.42;;;18.10;99.90;;;;;;5100071;27;20040;-74
2022/07/26 00:10:04;;;;;;;24.92;4.18;;;18.20;99.90;;;;;;5082809;27;20472;-75
2022/07/26 00:12:30;;;;;;;20.35;3.83;;;18.20;99.90;;;;;;5104591;27;21419;-77
2022/07/26 00:14:56;;;;;;;22.33;4.10;;;18.20;99.90;;;;;;5095741;27;20045;-75
2022/07/26 00:17:22;;;;;;;19.75;3.83;;;18.20;99.90;;;;;;5104734;27;20169;-75
2022/07/26 00:19:47;;;;;;;22.15;3.72;;;18.10;99.90;;;;;;5099121;27;20470;-74
2022/07/26 00:24:57;;;;;;;23.25;4.18;;;18.20;99.90;;;;;;5101881;27;20943;-75
2022/07/26 00:27:23;;;;;;;21.55;4.05;;;18.20;99.90;;;;;;5105111;27;20035;-74
2022/07/26 00:29:48;;;;;;;22.88;3.78;;;18.10;99.90;;;;;;5099181;27;20118;-74
2022/07/26 00:32:14;;;;;;;16.58;3.47;;;18.20;99.90;;;;;;5082854;27;20046;-75
2022/07/26 00:34:40;;;;;;;23.65;3.63;;;18.10;99.90;;;;;;5103982;27;20047;-75
2022/07/26 00:37:05;;;;;;;15.68;3.10;;;18.20;99.90;;;;;;5105517;28;20062;-74
2022/07/26 00:39:34;;;;;;;16.13;3.50;;;18.10;99.90;;;;;;5098444;27;20039;-72
2022/07/26 00:41:59;;;;;;;22.20;4.05;;;18.00;99.90;;;;;;5101586;27;20370;-74
2022/07/26 00:44:39;;;;;;;21.90;3.75;;;18.10;99.90;;;;;;5086129;28;20058;-74
2022/07/26 00:47:05;;;;;;;20.30;4.28;;;18.00;99.90;;;;;;5103011;27;20043;-76
2022/07/26 00:49:31;;;;;;;12.63;3.17;;;18.00;99.90;;;;;;5107613;27;20429;-76
2022/07/26 00:51:56;;;;;;;16.90;3.70;;;18.00;99.90;;;;;;5081551;28;20046;-75
2022/07/26 00:54:22;;;;;;;17.27;3.40;;;18.10;99.90;;;;;;5099715;27;20118;-75
2022/07/26 00:56:49;;;;;;;24.08;4.10;;;18.10;99.90;;;;;;5102411;27;20043;-73
2022/07/26 00:59:14;;;;;;;22.05;3.58;;;18.10;99.90;;;;;;5103442;28;20084;-75
2022/07/26 01:01:40;;;;;;;18.67;3.22;;;18.10;99.90;;;;;;5103654;28;20051;-75
2022/07/26 01:04:06;;;;;;;17.85;3.25;;;18.10;99.90;;;;;;5099203;28;20036;-73
2022/07/26 01:06:32;;;;;;;19.98;3.40;;;18.10;99.90;;;;;;5082983;28;20043;-75
2022/07/26 01:08:58;;;;;;;13.00;3.15;;;18.30;99.90;;;;;;5062973;28;20370;-76
2022/07/26 01:11:23;;;;;;;14.45;3.03;;;18.10;99.90;;;;;;5096936;28;20043;-74
2022/07/26 01:13:50;;;;;;;18.10;3.58;;;18.10;99.90;;;;;;5083749;28;20050;-74
2022/07/26 01:16:16;;;;;;;17.23;3.53;;;18.10;99.90;;;;;;5101937;28;20110;-74
2022/07/26 01:18:42;;;;;;;12.85;3.35;;;18.10;99.90;;;;;;5104340;28;20188;-76
2022/07/26 01:25:26;;;;;;;13.23;2.88;;;18.10;99.90;;;;;;5124816;28;20052;-73
2022/07/26 01:27:53;;;;;;;9.80;2.47;;;18.00;99.90;;;;;;5103684;28;20088;-74
2022/07/26 01:30:18;;;;;;;13.25;2.53;;;18.10;99.90;;;;;;5101601;27;20435;-74
2022/07/26 01:32:44;;;;;;;14.10;3.30;;;18.10;99.90;;;;;;5107162;27;20036;-72
2022/07/26 01:35:10;;;;;;;14.57;2.80;;;18.10;99.90;;;;;;5096227;27;20043;-73
2022/07/26 01:37:38;;;;;;;13.00;2.60;;;18.10;99.90;;;;;;5103291;27;20114;-74
2022/07/26 01:40:05;;;;;;;10.57;2.70;;;18.10;99.90;;;;;;5113523;27;20043;-74
2022/07/26 01:42:30;;;;;;;8.68;2.92;;;18.10;99.90;;;;;;5106466;27;20110;-74
2022/07/26 01:44:56;;;;;;;10.65;2.67;;;18.10;99.90;;;;;;5090053;27;20125;-75
2022/07/26 01:47:22;;;;;;;11.68;3.00;;;18.10;99.90;;;;;;5080916;28;20043;-73
2022/07/26 01:49:47;;;;;;;13.43;2.50;;;18.10;99.90;;;;;;5088870;27;20043;-74
2022/07/26 01:52:13;;;;;;;8.73;2.60;;;18.10;99.90;;;;;;5105208;27;20043;-73
2022/07/26 01:54:39;;;;;;;11.00;2.80;;;18.10;99.90;;;;;;5104220;27;20066;-76
2022/07/26 01:57:05;;;;;;;9.07;2.70;;;18.10;99.90;;;;;;5098463;28;20040;-73
2022/07/26 01:59:30;;;;;;;10.15;2.67;;;18.10;99.90;;;;;;5080126;28;20035;-73
2022/07/26 02:01:56;;;;;;;13.43;2.70;;;18.00;99.90;;;;;;5081020;28;20168;-73
2022/07/26 02:07:06;;;;;;;7.40;2.40;;;18.00;99.90;;;;;;5097638;28;20052;-73
2022/07/26 02:09:33;;;;;;;8.57;2.83;;;18.00;99.90;;;;;;5098030;28;20044;-75
2022/07/26 02:11:58;;;;;;;12.98;3.03;;;18.10;99.90;;;;;;5104683;27;20467;-75
2022/07/26 02:14:24;;;;;;;8.23;2.47;;;18.10;99.90;;;;;;5100208;28;20061;-76
2022/07/26 02:16:50;;;;;;;10.63;2.90;;;18.10;99.90;;;;;;5084848;28;20061;-74
2022/07/26 02:19:15;;;;;;;7.85;2.72;;;18.10;99.90;;;;;;5104069;28;20031;-74
2022/07/26 02:21:41;;;;;;;6.50;2.38;;;18.00;99.90;;;;;;5105108;28;20040;-74
2022/07/26 02:24:07;;;;;;;8.27;2.60;;;18.10;99.90;;;;;;5083250;28;20047;-76
2022/07/26 02:26:32;;;;;;;14.40;3.80;;;18.10;99.90;;;;;;5088730;28;21015;-75
2022/07/26 02:28:58;;;;;;;8.15;2.60;;;18.00;99.90;;;;;;5099977;28;20039;-79
2022/07/26 02:31:24;;;;;;;9.25;2.95;;;17.80;99.90;;;;;;5104213;28;20084;-77
2022/07/26 02:33:49;;;;;;;7.53;2.15;;;17.60;99.90;;;;;;5083124;28;20498;-80
2022/07/26 02:36:15;;;;;;;8.63;2.47;;;17.40;99.90;;;;;;5103215;28;20040;-77
2022/07/26 02:38:41;;;;;;;7.85;1.90;;;17.20;99.90;;;;;;5101908;28;20379;-75
2022/07/26 02:41:08;;;;;;;7.30;2.05;;;17.10;99.90;;;;;;5101305;28;20036;-75
2022/07/26 02:43:33;;;;;;;6.47;2.08;;;17.00;99.90;;;;;;5103966;28;20077;-75
2022/07/26 02:45:59;;;;;;;8.27;2.20;;;16.90;99.90;;;;;;5082009;28;20036;-74
2022/07/26 02:48:25;;;;;;;13.43;2.30;;;16.90;99.90;;;;;;5072401;28;20116;-77
2022/07/26 02:50:50;;;;;;;11.68;2.75;;;16.90;99.90;;;;;;5087824;28;20028;-76
2022/07/26 02:53:16;;;;;;;8.45;2.08;;;16.90;99.90;;;;;;5103226;27;20077;-76
2022/07/26 02:55:42;;;;;;;13.45;2.40;;;16.80;99.90;;;;;;5086055;27;20035;-77
2022/07/26 02:58:07;;;;;;;13.98;2.35;;;16.80;99.90;;;;;;5104919;27;20031;-77
2022/07/26 03:00:33;;;;;;;9.27;2.50;;;16.80;99.90;;;;;;5086732;27;20172;-75
2022/07/26 03:02:59;;;;;;;13.88;2.80;;;16.80;99.90;;;;;;5082899;27;20099;-76
2022/07/26 03:05:25;;;;;;;9.15;2.38;;;16.90;99.90;;;;;;5106851;27;20076;-74
2022/07/26 03:07:51;;;;;;;8.32;2.17;;;16.90;99.90;;;;;;5088909;27;20452;-75
2022/07/26 03:10:16;;;;;;;13.68;2.42;;;17.00;99.90;;;;;;5099565;27;20040;-76
2022/07/26 03:12:43;;;;;;;13.98;2.50;;;17.00;99.90;;;;;;5105399;27;20054;-77
2022/07/26 03:15:09;;;;;;;16.02;2.70;;;17.00;99.90;;;;;;5105268;27;20071;-76
2022/07/26 03:17:35;;;;;;;13.45;2.72;;;17.00;99.90;;;;;;5104534;27;20157;-75
2022/07/26 03:20:01;;;;;;;12.50;2.47;;;17.00;99.90;;;;;;5085256;27;20034;-75
2022/07/26 03:22:30;;;;;;;10.57;2.63;;;17.00;99.90;;;;;;5099210;27;20039;-76
2022/07/26 03:24:56;;;;;;;14.93;2.28;;;16.90;99.90;;;;;;5088621;27;20046;-74
2022/07/26 03:27:22;;;;;;;13.07;2.67;;;17.00;99.90;;;;;;5103382;27;20039;-75
2022/07/26 03:29:47;;;;;;;14.25;2.50;;;16.90;99.90;;;;;;5120961;27;20043;-77
2022/07/26 03:32:13;;;;;;;11.20;2.03;;;17.00;99.90;;;;;;5103119;27;20423;-75
2022/07/26 03:34:39;;;;;;;13.88;2.22;;;17.00;99.90;;;;;;5104018;27;20043;-75
2022/07/26 03:37:04;;;;;;;13.80;1.90;;;17.00;99.90;;;;;;5085679;27;20134;-76
2022/07/26 03:39:30;;;;;;;10.45;1.70;;;17.00;99.90;;;;;;5105032;27;20059;-77
2022/07/26 03:41:55;;;;;;;11.70;1.88;;;16.90;99.90;;;;;;5104298;27;20043;-75
2022/07/26 03:44:21;;;;;;;10.77;1.40;;;16.70;99.90;;;;;;5101087;27;20346;-77
2022/07/26 03:46:47;;;;;;;12.63;1.50;;;16.90;99.90;;;;;;5100347;27;20042;-77
2022/07/26 03:49:12;;;;;;;14.63;1.92;;;16.80;99.90;;;;;;5102047;27;20043;-76
2022/07/26 03:51:38;;;;;;;8.68;1.67;;;16.80;99.90;;;;;;5102620;27;20952;-74
2022/07/26 03:54:04;;;;;;;7.57;1.13;;;16.80;99.90;;;;;;5078420;28;20048;-76
2022/07/26 03:56:32;;;;;;;8.45;1.40;;;16.80;99.90;;;;;;5099387;27;20035;-76
2022/07/26 03:59:07;;;;;;;11.07;1.52;;;16.70;99.90;;;;;;5079760;27;20676;-77
2022/07/26 04:01:35;;;;;;;8.50;1.30;;;16.70;99.90;;;;;;5105018;27;20061;-73
2022/07/26 04:04:01;;;;;;;9.57;1.33;;;16.70;99.90;;;;;;5108130;27;20039;-73
2022/07/26 04:06:27;;;;;;;8.77;1.50;;;16.70;99.90;;;;;;5107416;27;20039;-73
2022/07/26 04:08:53;;;;;;;4.85;1.02;;;16.60;99.90;;;;;;5105480;27;20047;-76
2022/07/26 04:11:19;;;;;;;7.60;1.30;;;16.60;99.90;;;;;;5080812;27;20506;-75
2022/07/26 04:13:45;;;;;;;6.93;1.17;;;16.60;99.90;;;;;;5084783;27;20119;-77
2022/07/26 04:16:11;;;;;;;12.48;1.27;;;16.50;99.90;;;;;;5106570;27;20118;-75
2022/07/26 04:18:36;;;;;;;6.97;1.17;;;16.70;99.90;;;;;;5098360;27;20118;-77
2022/07/26 04:21:03;;;;;;;10.60;1.67;;;16.70;99.90;;;;;;5077133;28;20490;-76
2022/07/26 04:23:28;;;;;;;9.38;1.30;;;16.70;99.90;;;;;;5105871;27;20047;-75
2022/07/26 04:25:54;;;;;;;6.60;1.40;;;16.60;99.90;;;;;;5112660;27;20031;-77
2022/07/26 04:28:20;;;;;;;11.05;1.42;;;16.60;99.90;;;;;;5105202;27;20136;-78
2022/07/26 04:30:45;;;;;;;8.73;1.20;;;16.60;99.90;;;;;;5086781;28;20212;-76
2022/07/26 04:33:11;;;;;;;7.03;1.20;;;16.60;99.90;;;;;;5078615;27;20138;-75
2022/07/26 04:35:37;;;;;;;11.40;1.23;;;16.60;99.90;;;;;;5101760;27;20050;-78
2022/07/26 04:38:03;;;;;;;8.68;1.52;;;16.60;99.90;;;;;;5097917;27;20047;-75
2022/07/26 04:40:32;;;;;;;10.70;1.88;;;16.60;99.90;;;;;;5082701;27;20407;-77
2022/07/26 04:42:58;;;;;;;6.22;1.00;;;16.60;99.90;;;;;;5078739;27;20043;-74
2022/07/26 04:45:24;;;;;;;7.88;1.33;;;16.60;99.90;;;;;;5100172;27;20050;-75
2022/07/26 04:47:50;;;;;;;6.03;1.42;;;16.50;99.90;;;;;;5103427;27;20043;-76
2022/07/26 04:50:17;;;;;;;9.18;1.30;;;16.50;99.90;;;;;;5097785;27;20053;-75
2022/07/26 04:52:43;;;;;;;8.07;1.33;;;16.60;99.90;;;;;;5084083;28;20096;-77
2022/07/26 04:55:09;;;;;;;9.00;1.38;;;16.50;99.90;;;;;;5099946;28;20096;-75
2022/07/26 04:57:35;;;;;;;6.53;1.30;;;16.50;99.90;;;;;;5095437;27;20039;-76
2022/07/26 05:00:04;;;;;;;11.20;1.67;;;16.40;99.90;;;;;;5084962;27;20039;-75
2022/07/26 05:02:29;;;;;;;9.32;1.00;;;16.50;99.90;;;;;;5083515;28;20044;-76
2022/07/26 05:04:55;;;;;;;6.45;0.90;;;16.50;99.90;;;;;;5102921;27;20055;-75
2022/07/26 05:07:20;;;;;;;7.40;0.95;;;16.50;99.90;;;;;;5086067;28;20031;-74
2022/07/26 05:09:46;;;;;;;5.75;1.30;;;16.50;99.90;;;;;;5102880;28;20126;-76
2022/07/26 05:12:12;;;;;;;7.80;1.20;;;16.50;99.90;;;;;;5102074;28;20081;-77
2022/07/26 05:14:38;;;;;;;9.57;1.27;;;16.60;99.90;;;;;;5085625;28;20046;-73
2022/07/26 05:17:04;;;;;;;5.57;1.05;;;16.60;99.90;;;;;;5101899;28;20035;-76
2022/07/26 05:19:29;;;;;;;7.90;1.20;;;16.60;99.90;;;;;;5103452;28;20089;-76
2022/07/26 05:21:55;;;;;;;8.07;1.20;;;16.50;99.90;;;;;;5109730;28;20076;-75
2022/07/26 05:24:21;;;;;;;4.97;0.85;;;16.40;99.90;;;;;;5104764;28;20103;-74
2022/07/26 05:26:46;;;;;;;5.28;0.90;;;16.30;99.90;;;;;;5119179;28;20235;-74
2022/07/26 05:29:12;;;;;;;4.13;0.50;;;16.10;99.90;;;;;;5097018;28;20379;-78
2022/07/26 05:31:38;;;;;;;6.28;0.95;;;16.00;99.90;;;;;;5103020;28;20471;-78
2022/07/26 05:34:03;;;;;;;4.03;1.00;;;16.00;99.90;;;;;;5099051;28;20516;-80
2022/07/26 05:36:29;;;;;;;7.72;1.15;;;16.00;99.90;;;;;;5103885;28;20051;-76
2022/07/26 05:38:55;;;;;;;6.40;1.08;;;16.10;99.90;;;;;;5099256;28;20031;-73
2022/07/26 05:41:21;;;;;;;8.55;0.90;;;16.20;99.90;;;;;;5119974;28;20136;-73
2022/07/26 05:43:46;;;;;;;6.10;1.00;;;16.30;99.90;;;;;;5098629;28;20138;-73
2022/07/26 05:46:14;;;;;;;8.52;1.33;;;16.40;99.90;;;;;;5100465;28;20035;-71
2022/07/26 05:48:40;;;;;;;3.65;0.85;;;16.50;99.90;;;;;;5083719;28;20517;-72
2022/07/26 05:51:07;;;;;;;8.18;0.90;;;16.70;99.90;;;;;;5082322;28;20035;-74
2022/07/26 05:53:32;;;;;;;5.10;1.05;;;16.90;99.90;;;;;;5104354;28;20043;-73
2022/07/26 05:55:58;;;;;;;6.03;1.13;;;16.90;99.90;;;;;;5114041;28;20084;-70
2022/07/26 05:58:24;;;;;;;10.30;1.00;;;16.80;99.90;;;;;;5096712;28;20035;-72
2022/07/26 06:00:49;;;;;;;6.72;1.00;;;16.80;99.90;;;;;;5078675;28;20089;-72
2022/07/26 06:03:21;;;;;;;6.13;1.25;;;16.90;99.90;;;;;;5102728;28;20132;-72
2022/07/26 06:05:52;;;;;;;6.45;1.13;;;16.90;99.90;;;;;;5086032;28;20031;-72
2022/07/26 06:08:18;;;;;;;11.73;1.27;;;17.10;99.90;;;;;;5103459;28;20343;-73
2022/07/26 06:10:45;;;;;;;7.13;1.08;;;17.20;99.90;;;;;;5120741;28;20047;-72
2022/07/26 06:13:11;;;;;;;7.00;1.00;;;17.20;99.90;;;;;;5116875;28;20031;-73
2022/07/26 06:15:37;;;;;;;7.07;1.17;;;17.30;99.90;;;;;;5103488;28;20031;-73
2022/07/26 06:18:04;;;;;;;12.15;1.40;;;17.20;99.90;;;;;;5101614;27;20048;-74
2022/07/26 06:20:30;;;;;;;5.88;1.27;;;17.20;99.90;;;;;;5099232;27;20076;-72
2022/07/26 06:22:59;;;;;;;9.23;1.55;;;17.20;99.90;;;;;;5115070;27;20091;-74
2022/07/26 06:25:25;;;;;;;7.60;1.48;;;17.10;99.90;;;;;;5104591;27;20107;-78
2022/07/26 06:27:52;;;;;;;7.85;1.23;;;17.00;99.90;;;;;;5084757;27;20043;-72
2022/07/26 06:30:17;;;;;;;10.25;1.33;;;16.80;99.90;;;;;;5078457;27;20563;-74
2022/07/26 06:32:43;;;;;;;8.18;1.20;;;16.60;99.90;;;;;;5083247;27;20051;-73
2022/07/26 06:35:13;;;;;;;10.10;1.55;;;16.50;99.90;;;;;;5100343;27;20045;-73
2022/07/26 06:37:40;;;;;;;10.38;1.83;;;16.40;99.90;;;;;;5089949;27;20111;-75
2022/07/26 06:40:08;;;;;;;7.32;1.58;;;16.40;99.90;;;;;;5084547;27;20104;-75
2022/07/26 06:42:34;;;;;;;10.75;1.40;;;16.50;99.90;;;;;;5112469;27;20046;-73
2022/07/26 06:45:00;;;;;;;7.75;1.27;;;16.60;99.90;;;;;;5106814;27;20039;-73
2022/07/26 06:47:26;;;;;;;8.48;1.13;;;16.70;99.90;;;;;;5100590;27;20178;-74
2022/07/26 06:49:52;;;;;;;8.07;1.35;;;16.90;99.90;;;;;;5114889;27;20167;-74
2022/07/26 06:52:18;;;;;;;7.18;0.98;;;16.90;99.90;;;;;;5101654;27;20428;-75
2022/07/26 06:54:44;;;;;;;6.70;1.02;;;17.00;99.90;;;;;;5087071;28;20140;-77
2022/07/26 06:57:10;;;;;;;10.55;1.00;;;17.10;99.90;;;;;;5082466;28;20127;-78
2022/07/26 06:59:36;;;;;;;7.72;1.10;;;17.20;99.90;;;;;;5077593;28;20039;-75
2022/07/26 07:02:04;;;;;;;5.13;1.00;;;17.20;99.90;;;;;;5080596;28;20052;-78
2022/07/26 07:04:31;;;;;;;5.28;1.15;;;17.10;99.90;;;;;;5073812;28;20044;-76
2022/07/26 07:07:01;;;;;;;8.50;1.30;;;17.10;99.90;;;;;;5064939;28;20040;-77
2022/07/26 07:09:34;;;;;;;3.17;0.80;;;16.90;99.90;;;;;;5058588;28;20053;-77
2022/07/26 07:12:04;;;;;;;6.70;1.30;;;16.70;99.90;;;;;;5076337;28;20056;-77
2022/07/26 07:14:30;;;;;;;7.05;1.20;;;16.70;99.90;;;;;;5082300;28;20073;-73
2022/07/26 07:16:56;;;;;;;10.40;1.35;;;16.90;99.90;;;;;;5065624;28;20045;-81
2022/07/26 07:19:22;;;;;;;5.05;1.20;;;17.10;99.90;;;;;;5071677;28;20243;-78
2022/07/26 07:21:48;;;;;;;7.25;1.20;;;17.30;99.90;;;;;;5057900;28;20536;-78
2022/07/26 07:24:14;;;;;;;5.90;1.20;;;17.50;99.90;;;;;;5077567;28;20060;-78
2022/07/26 07:26:40;;;;;;;4.97;1.13;;;17.50;99.90;;;;;;5056758;28;20378;-78
2022/07/26 07:29:08;;;;;;;6.40;1.23;;;17.50;99.90;;;;;;5057347;28;20060;-78
2022/07/26 07:31:35;;;;;;;6.47;1.08;;;17.50;99.90;;;;;;5073657;28;20643;-77
2022/07/26 07:34:00;;;;;;;10.20;1.33;;;17.60;99.90;;;;;;5066768;28;20047;-78
2022/07/26 07:36:26;;;;;;;8.57;1.52;;;17.80;99.90;;;;;;5079818;28;20040;-77
2022/07/26 07:38:51;;;;;;;9.50;1.20;;;17.90;99.90;;;;;;5079465;28;20536;-76
2022/07/26 07:41:17;;;;;;;10.57;1.48;;;17.90;99.90;;;;;;5082890;28;20036;-77
2022/07/26 07:43:43;;;;;;;11.32;1.80;;;17.90;99.90;;;;;;5064217;28;20048;-79
2022/07/26 07:46:09;;;;;;;16.52;2.10;;;17.60;99.90;;;;;;5080596;28;20068;-76
2022/07/26 07:48:36;;;;;;;11.15;2.03;;;17.20;99.90;;;;;;5066854;28;20396;-76
2022/07/26 07:51:02;;;;;;;9.18;1.70;;;17.20;99.90;;;;;;5055014;28;20589;-78
2022/07/26 07:53:28;;;;;;;7.90;1.92;;;17.20;99.90;;;;;;5068901;28;20157;-76
2022/07/26 07:55:53;;;;;;;9.93;2.00;;;17.20;99.90;;;;;;5088808;28;20372;-79
2022/07/26 07:58:19;;;;;;;11.55;1.83;;;17.20;99.90;;;;;;5103570;28;20043;-79
2022/07/26 08:00:46;;;;;;;8.07;1.80;;;17.20;99.90;;;;;;5105650;28;20035;-80
2022/07/26 08:03:11;;;;;;;9.35;1.52;;;17.30;99.90;;;;;;5092511;28;20110;-75
2022/07/26 08:05:37;;;;;;;9.63;1.45;;;17.30;99.90;;;;;;5113552;28;20075;-74
2022/07/26 08:08:03;;;;;;;10.32;1.70;;;17.40;99.90;;;;;;5109838;28;20146;-75
2022/07/26 08:10:29;;;;;;;10.15;1.48;;;17.50;99.90;;;;;;5102959;28;20052;-77
2022/07/26 08:12:55;;;;;;;8.85;1.40;;;17.70;99.90;;;;;;5100292;28;20555;-77
2022/07/26 08:15:22;;;;;;;14.82;1.58;;;17.70;99.90;;;;;;5105837;27;20035;-78
2022/07/26 08:17:48;;;;;;;8.52;1.60;;;17.90;99.90;;;;;;5080887;28;20126;-77
2022/07/26 08:20:14;;;;;;;9.32;1.88;;;18.20;99.90;;;;;;5104793;28;20043;-77
2022/07/26 08:22:43;;;;;;;14.95;2.30;;;18.20;99.90;;;;;;5097319;28;20056;-78
2022/07/26 08:25:09;;;;;;;7.05;1.33;;;18.20;99.90;;;;;;5103031;28;20043;-77
2022/07/26 08:27:35;;;;;;;11.60;1.83;;;18.40;99.90;;;;;;5101927;28;20115;-75
2022/07/26 08:30:00;;;;;;;7.65;1.77;;;18.50;99.90;;;;;;5085158;28;20050;-77
2022/07/26 08:32:26;;;;;;;16.63;2.28;;;18.50;99.90;;;;;;5090914;28;20502;-77
2022/07/26 08:34:52;;;;;;;11.68;1.55;;;18.60;99.90;;;;;;5085890;28;20111;-77
2022/07/26 08:37:17;;;;;;;13.93;1.80;;;18.70;99.90;;;;;;5098413;28;20118;-77
2022/07/26 08:39:45;;;;;;;7.85;1.48;;;18.50;99.90;;;;;;5092202;28;20092;-74
2022/07/26 08:42:18;;;;;;;14.63;2.30;;;18.10;99.90;;;;;;5099303;28;20062;-76
2022/07/26 08:44:45;;;;;;;7.05;1.48;;;18.00;99.90;;;;;;5094009;28;20048;-76
2022/07/26 08:47:16;;;;;;;13.60;1.88;;;18.00;99.90;;;;;;5081359;28;20079;-76
2022/07/26 08:49:42;;;;;;;11.75;2.00;;;18.10;99.90;;;;;;5096683;28;20044;-78
2022/07/26 08:52:09;;;;;;;10.68;1.98;;;18.30;99.90;;;;;;5082064;28;20058;-77
2022/07/26 08:54:47;;;;;;;10.13;1.67;;;18.40;99.90;;;;;;5071338;28;20107;-77
2022/07/26 08:57:13;;;;;;;10.68;1.90;;;18.50;99.90;;;;;;5067839;28;20040;-76
2022/07/26 08:59:39;;;;;;;15.43;2.72;;;18.40;99.90;;;;;;5089258;28;20075;-77
2022/07/26 09:02:11;;;;;;;12.00;1.88;;;18.20;99.90;;;;;;5089002;28;20184;-79
2022/07/26 09:04:43;;;;;;;14.73;2.83;;;18.00;99.90;;;;;;5089457;28;20072;-76
2022/07/26 09:07:10;;;;;;;11.55;1.80;;;17.70;99.90;;;;;;5053081;28;20052;-79
2022/07/26 09:09:54;;;;;;;15.32;2.70;;;17.60;99.90;;;;;;5066721;28;20052;-78
2022/07/26 09:12:21;;;;;;;13.73;2.88;;;17.50;99.90;;;;;;5054447;28;20083;-77
2022/07/26 09:14:47;;;;;;;11.52;2.28;;;17.70;99.90;;;;;;5087942;28;20353;-77
2022/07/26 09:17:14;;;;;;;14.63;2.30;;;17.90;99.90;;;;;;5072919;28;20044;-75
2022/07/26 09:19:41;;;;;;;12.80;2.08;;;18.10;99.90;;;;;;5072673;28;20082;-78
2022/07/26 09:22:10;;;;;;;15.68;2.83;;;18.20;99.90;;;;;;5072657;28;20048;-79
2022/07/26 09:28:29;;;;;;;19.38;2.78;;;17.80;99.90;;;;;;5103158;28;20039;-72
2022/07/26 09:31:01;;;;;;;16.48;2.60;;;17.90;99.90;;;;;;5076584;28;20059;-77
2022/07/26 09:33:44;;;;;;;12.32;2.53;;;18.10;99.90;;;;;;5088189;28;20048;-76
2022/07/26 09:36:10;;;;;;;16.58;2.78;;;18.20;99.90;;;;;;5069441;28;20505;-77
2022/07/26 09:38:42;;;;;;;21.45;3.10;;;18.30;99.90;;;;;;5087830;28;20044;-82
2022/07/26 09:41:28;;;;;;;15.75;2.88;;;18.40;99.90;;;;;;5090241;28;20040;-77
2022/07/26 09:43:58;;;;;;;18.10;2.78;;;18.40;99.90;;;;;;5090199;28;20569;-79
2022/07/26 09:46:25;;;;;;;16.27;3.03;;;18.30;99.90;;;;;;5074026;28;20040;-79
2022/07/26 09:48:51;;;;;;;14.98;2.17;;;18.20;99.90;;;;;;5089856;28;20043;-77
2022/07/26 09:51:38;;;;;;;12.20;2.55;;;18.10;99.90;;;;;;5073061;28;20539;-76
2022/07/26 09:54:04;;;;;;;17.25;2.88;;;18.30;99.90;;;;;;5101366;28;20047;-76
2022/07/26 09:56:50;;;;;;;15.98;2.50;;;18.40;99.90;;;;;;5109038;28;20052;-77
2022/07/26 09:59:19;;;;;;;12.30;2.80;;;18.40;99.90;;;;;;5102951;28;20419;-77
2022/07/26 10:01:46;;;;;;;18.48;2.78;;;18.40;99.90;;;;;;5092958;28;20048;-77
2022/07/26 10:04:13;;;;;;;14.40;2.30;;;18.60;99.90;;;;;;5098331;28;20466;-77
2022/07/26 10:06:40;;;;;;;13.60;2.00;;;18.80;99.90;;;;;;5102348;28;20123;-78
2022/07/26 10:09:06;;;;;;;16.65;2.83;;;19.00;99.90;;;;;;5096699;28;20406;-77
2022/07/26 10:12:02;;;;;;;16.45;2.22;;;19.10;99.90;;;;;;5103159;28;20055;-77
2022/07/26 10:14:34;;;;;;;;;;;19.40;99.90;;;;;;5083828;28;20052;-76
2022/07/26 10:17:01;;;;;;;8.65;2.10;;;19.40;99.90;;;;;;5100433;27;19932;-77
2022/07/26 10:19:40;;;;;;;11.93;2.63;;;19.40;99.90;;;;;;5112927;27;20048;-77
2022/07/26 10:22:46;;;;;;;13.13;2.38;;;19.70;99.90;;;;;;5090366;28;20056;-77
2022/07/26 10:25:17;;;;;;;;;;;19.90;99.90;;;;;;4990924;28;20121;-78
2022/07/26 10:27:45;;;;;;;9.15;2.05;;;20.00;99.90;;;;;;4964507;28;19918;-77
2022/07/26 10:30:17;;;;;;;12.65;2.20;;;20.20;99.90;;;;;;4982802;28;20416;-77
2022/07/26 10:33:09;;;;;;;16.42;2.10;;;20.30;99.90;;;;;;4984124;28;20418;-78
2022/07/26 10:35:43;;;;;;;11.98;2.05;;;20.00;99.90;;;;;;4980384;28;20042;-76
2022/07/26 10:38:10;;;;;;;13.35;2.05;;;20.20;99.90;;;;;;4985030;28;20057;-77
2022/07/26 10:40:54;;;;;;;8.90;1.95;;;20.00;99.90;;;;;;4978156;28;20060;-78
2022/07/26 10:43:19;;;;;;;10.82;1.98;;;19.70;99.90;;;;;;4981724;28;20050;-79
2022/07/26 10:45:45;;;;;;;7.28;1.80;;;19.60;99.90;;;;;;4981428;28;20111;-79
2022/07/26 10:48:17;;;;;;;9.90;1.80;;;19.70;99.90;;;;;;4976154;28;20049;-77
2022/07/26 10:50:48;;;;;;;12.68;1.70;;;19.80;99.90;;;;;;4982505;28;20046;-76
2022/07/26 10:53:17;;;;;;;14.35;1.88;;;20.00;99.90;;;;;;4981958;28;20085;-75
2022/07/26 10:55:54;;;;;;;7.03;1.80;;;19.90;99.90;;;;;;4993144;28;20045;-76
2022/07/26 10:58:21;;;;;;;8.52;1.73;;;20.20;99.90;;;;;;4995428;28;20107;-75
2022/07/26 11:00:55;;;;;;;9.75;1.52;;;20.30;99.90;;;;;;5012786;28;20388;-76
2022/07/26 11:03:20;;;;;;;5.05;1.30;;;20.50;99.90;;;;;;5080024;28;20044;-76
2022/07/26 11:05:46;;;;;;;9.98;1.58;;;20.70;99.90;;;;;;5102610;28;20043;-76
2022/07/26 11:08:12;;;;;;;12.45;1.90;;;20.60;99.90;;;;;;5112003;28;20051;-76
2022/07/26 11:10:46;;;;;;;9.63;1.58;;;20.40;99.90;;;;;;5081709;28;20186;-76
2022/07/26 11:13:13;;;;;;;6.10;1.40;;;20.40;99.90;;;;;;5078849;28;20134;-76
2022/07/26 11:15:41;;;;;;;14.73;1.88;;;20.30;99.90;;;;;;5103318;28;20048;-77
2022/07/26 11:18:15;;;;;;;6.25;1.08;;;20.30;99.90;;;;;;5095219;28;20043;-74
2022/07/26 11:20:42;;;;;;;7.57;1.40;;;20.50;99.90;;;;;;5107838;28;20075;-75
2022/07/26 11:23:27;;;;;;;6.22;1.10;;;20.80;99.20;;;;;;5100218;28;20044;-75
2022/07/26 11:26:04;;;;;;;7.32;1.42;;;20.60;99.40;;;;;;5095226;28;20051;-76
2022/07/26 11:28:46;;;;;;;4.88;1.20;;;20.60;99.60;;;;;;5086236;28;20056;-75
2022/07/26 11:31:12;;;;;;;3.60;0.88;;;20.50;99.90;;;;;;5111145;28;20067;-76
2022/07/26 11:33:40;;;;;;;7.32;1.40;;;20.30;99.90;;;;;;5102062;28;20054;-76
2022/07/26 11:36:06;;;;;;;7.35;1.35;;;20.20;99.90;;;;;;5107986;28;20729;-76
2022/07/26 11:42:15;;;;;;;5.20;1.25;;;20.20;99.90;;;;;;5098828;28;20978;-75
2022/07/26 11:44:45;;;;;;;4.68;1.13;;;20.30;99.80;;;;;;5101861;28;20031;-76
2022/07/26 11:47:22;;;;;;;6.70;1.48;;;20.40;99.20;;;;;;5088271;28;20513;-76
2022/07/26 11:49:48;;;;;;;7.72;1.27;;;20.30;99.80;;;;;;5086251;28;20446;-76
2022/07/26 11:52:15;;;;;;;7.15;1.55;;;20.30;99.70;;;;;;5096249;28;20053;-77
2022/07/26 11:54:47;;;;;;;7.18;1.50;;;20.70;99.40;;;;;;5084776;28;20052;-76
2022/07/26 11:57:12;;;;;;;11.52;1.75;;;21.00;98.80;;;;;;5078332;28;20395;-76
2022/07/26 11:59:39;;;;;;;7.25;1.10;;;20.90;98.80;;;;;;5093033;28;20043;-76
2022/07/26 12:02:06;;;;;;;6.65;1.35;;;20.80;98.80;;;;;;5116089;27;20043;-75
2022/07/26 12:04:36;;;;;;;8.15;1.40;;;21.00;98.50;;;;;;5105859;28;20043;-75
2022/07/26 12:07:17;;;;;;;5.50;1.20;;;21.10;98.20;;;;;;5111286;28;20139;-75
2022/07/26 12:09:47;;;;;;;5.75;1.25;;;21.30;97.90;;;;;;5104786;28;20043;-75
2022/07/26 12:12:26;;;;;;;7.20;1.40;;;21.50;98.00;;;;;;5105493;28;20415;-76
2022/07/26 12:14:55;;;;;;;6.60;1.52;;;21.40;97.40;;;;;;5087171;28;20059;-76
2022/07/26 12:17:21;;;;;;;5.53;1.30;;;21.50;97.40;;;;;;5093478;28;20043;-76
2022/07/26 12:19:47;;;;;;;7.72;1.58;;;21.50;97.60;;;;;;5106779;28;20568;-76
2022/07/26 12:22:21;;;;;;;8.57;1.48;;;21.10;98.70;;;;;;5110274;28;20039;-75
2022/07/26 12:24:49;;;;;;;8.13;1.60;;;21.10;99.90;;;;;;5105684;28;20052;-75
2022/07/26 12:27:27;;;;;;;6.00;1.42;;;20.80;99.70;;;;;;5102431;28;20482;-78
2022/07/26 12:29:55;;;;;;;8.38;1.88;;;20.50;99.90;;;;;;5099888;28;20626;-77
2022/07/26 12:32:42;;;;;;;5.45;1.27;;;20.50;99.90;;;;;;5102777;28;20048;-78
2022/07/26 12:35:13;;;;;;;5.05;1.30;;;20.40;99.80;;;;;;5095888;28;20137;-77
2022/07/26 12:37:45;;;;;;;10.30;1.65;;;20.50;99.80;;;;;;5080163;28;20051;-78
2022/07/26 12:40:20;;;;;;;7.97;1.50;;;20.60;99.90;;;;;;5107354;28;20423;-77
2022/07/26 12:42:48;;;;;;;9.32;1.75;;;20.80;99.60;;;;;;5078941;28;20112;-76
2022/07/26 12:45:25;;;;;;;10.88;1.60;;;20.70;99.60;;;;;;5104693;28;20143;-77
2022/07/26 12:47:52;;;;;;;5.50;1.30;;;21.10;99.40;;;;;;5091673;28;20076;-75
2022/07/26 12:50:22;;;;;;;9.23;1.67;;;21.20;99.60;;;;;;5101308;28;20083;-79
2022/07/26 12:52:47;;;;;;;5.68;1.20;;;21.20;99.10;;;;;;5093462;28;20411;-78
2022/07/26 12:55:16;;;;;;;9.98;1.48;;;21.20;99.70;;;;;;5097632;28;20068;-79
2022/07/26 12:57:43;;;;;;;11.18;1.65;;;21.20;99.30;;;;;;5092739;28;20066;-75
2022/07/26 13:00:10;;;;;;;7.82;1.67;;;20.90;99.40;;;;;;5084494;28;20044;-77
2022/07/26 13:02:37;;;;;;;7.72;1.90;;;20.80;99.90;;;;;;5083799;28;20057;-74